Time;durP1;ratioP1;P1;durP2;ratioP2;P2;SDS_P1;SDS_P2;PMS_P1;PMS_P2;Temp;Humidity;BMP_temperature;BMP_pressure;BME280_temperature;BME280_humidity;BME280_pressure;Samples;Min_cycle;Max_cycle;Signal;HPM_P1;HPM_P2
2021/04/04 00:02:15;;;;;;;6.30;1.90;;;38.60;6.80;;;;;;5095615;28;20207;-61
2021/04/04 00:04:42;;;;;;;6.15;1.92;;;38.60;7.20;;;;;;5093370;28;20079;-58
2021/04/04 00:07:09;;;;;;;3.45;1.75;;;38.50;7.40;;;;;;5091182;28;20079;-59
2021/04/04 00:09:35;;;;;;;9.98;2.42;;;38.40;8.40;;;;;;5094205;28;20080;-58
2021/04/04 00:12:02;;;;;;;7.43;1.80;;;38.40;8.00;;;;;;5094428;28;20160;-58
2021/04/04 00:14:29;;;;;;;6.43;1.73;;;38.30;8.40;;;;;;5097317;28;20072;-57
2021/04/04 00:16:55;;;;;;;9.15;1.98;;;38.20;7.50;;;;;;5093612;28;20124;-59
2021/04/04 00:19:23;;;;;;;9.00;1.77;;;38.10;7.10;;;;;;5096561;28;20080;-58
2021/04/04 00:21:50;;;;;;;5.22;1.80;;;38.00;7.80;;;;;;5098374;28;20068;-61
2021/04/04 00:24:16;;;;;;;8.57;1.70;;;37.80;8.40;;;;;;5093413;28;20065;-59
2021/04/04 00:26:43;;;;;;;9.50;2.10;;;37.70;8.20;;;;;;5096403;28;20085;-56
2021/04/04 00:29:10;;;;;;;4.43;2.05;;;37.70;8.40;;;;;;5093218;28;20108;-57
2021/04/04 00:31:37;;;;;;;8.18;2.47;;;37.60;8.00;;;;;;5094884;28;20084;-57
2021/04/04 00:34:06;;;;;;;8.18;1.88;;;37.50;8.00;;;;;;5096464;28;20076;-54
2021/04/04 00:36:33;;;;;;;9.07;2.20;;;37.40;8.00;;;;;;5101315;28;20076;-57
2021/04/04 00:39:00;;;;;;;6.28;1.70;;;37.40;8.10;;;;;;5100888;28;20073;-56
2021/04/04 00:41:26;;;;;;;6.82;1.80;;;37.40;8.20;;;;;;5097970;28;20083;-58
2021/04/04 00:43:53;;;;;;;7.32;2.10;;;37.50;8.90;;;;;;5099241;28;20091;-57
2021/04/04 00:46:19;;;;;;;4.28;1.95;;;37.60;8.20;;;;;;5092206;28;20072;-56
2021/04/04 00:48:46;;;;;;;3.90;1.83;;;37.60;8.30;;;;;;5094966;28;20073;-54
2021/04/04 00:51:13;;;;;;;7.90;3.10;;;37.80;8.00;;;;;;5101289;28;20064;-57
2021/04/04 00:53:40;;;;;;;6.88;2.33;;;37.90;7.70;;;;;;5099277;28;20187;-56
2021/04/04 00:56:07;;;;;;;4.95;1.60;;;37.90;8.10;;;;;;5097655;28;20171;-58
2021/04/04 00:58:33;;;;;;;4.68;2.47;;;37.80;7.70;;;;;;5085272;28;20084;-57
2021/04/04 01:01:00;;;;;;;12.77;2.13;;;37.90;7.90;;;;;;5099666;28;20118;-60
2021/04/04 01:03:26;;;;;;;10.05;2.40;;;37.80;8.60;;;;;;5097562;28;20155;-54
2021/04/04 01:05:55;;;;;;;5.25;2.50;;;37.80;9.40;;;;;;5098818;28;20149;-55
2021/04/04 01:08:21;;;;;;;9.02;3.92;;;38.10;8.80;;;;;;5098093;28;20076;-58
2021/04/04 01:10:49;;;;;;;13.45;3.83;;;38.90;8.90;;;;;;5092223;28;20140;-53
2021/04/04 01:13:28;;;;;;;10.32;2.90;;;39.60;8.80;;;;;;5082170;28;20099;-56
2021/04/04 01:16:08;;;;;;;14.25;2.90;;;40.00;9.10;;;;;;5101485;28;20474;-53
2021/04/04 01:18:42;;;;;;;15.30;2.60;;;40.00;7.30;;;;;;5099817;28;20221;-54
2021/04/04 01:21:14;;;;;;;7.93;2.55;;;39.40;7.50;;;;;;5099844;28;20080;-55
2021/04/04 01:24:17;;;;;;;3.95;2.08;;;38.70;8.10;;;;;;5078272;28;20073;-58
2021/04/04 01:27:10;;;;;;;7.75;1.95;;;37.80;8.30;;;;;;5096039;28;20072;-58
2021/04/04 01:29:39;;;;;;;5.18;1.88;;;37.20;9.30;;;;;;5096251;28;20397;-61
2021/04/04 01:32:06;;;;;;;11.43;2.90;;;36.60;9.70;;;;;;5102548;28;20084;-59
2021/04/04 01:34:35;;;;;;;8.95;2.63;;;36.30;10.00;;;;;;5096302;28;20076;-56
2021/04/04 01:37:10;;;;;;;5.43;2.53;;;35.90;11.10;;;;;;5095154;28;20594;-57
2021/04/04 01:39:50;;;;;;;18.77;3.40;;;35.50;10.90;;;;;;5095160;28;20120;-58
2021/04/04 01:42:20;;;;;;;12.70;4.13;;;35.20;10.70;;;;;;5094787;28;20482;-56
2021/04/04 01:44:49;;;;;;;10.40;4.85;;;34.70;17.90;;;;;;5096337;28;20125;-59
2021/04/04 01:47:16;;;;;;;16.40;5.75;;;34.60;10.90;;;;;;5097451;28;20083;-57
2021/04/04 01:49:45;;;;;;;11.45;4.50;;;34.40;11.80;;;;;;5095739;28;20496;-57
2021/04/04 01:52:13;;;;;;;9.63;3.50;;;33.90;10.60;;;;;;5097093;28;20092;-59
2021/04/04 01:54:41;;;;;;;9.65;3.45;;;33.90;11.10;;;;;;5095967;28;20087;-55
2021/04/04 01:57:08;;;;;;;11.10;4.03;;;33.60;36.70;;;;;;5095287;28;20056;-58
2021/04/04 01:59:36;;;;;;;8.13;3.17;;;33.60;11.70;;;;;;5092803;28;20081;-58
2021/04/04 02:02:04;;;;;;;14.90;3.63;;;33.40;11.70;;;;;;5100782;28;20075;-57
2021/04/04 02:04:32;;;;;;;11.18;3.15;;;33.30;14.40;;;;;;5099534;28;20081;-55
2021/04/04 02:06:59;;;;;;;16.02;3.40;;;33.20;10.00;;;;;;5095202;28;20595;-55
2021/04/04 02:09:27;;;;;;;18.80;3.35;;;33.80;9.80;;;;;;5097850;28;20058;-58
2021/04/04 02:11:55;;;;;;;18.83;3.65;;;33.00;25.40;;;;;;5098760;28;20488;-55
2021/04/04 02:14:24;;;;;;;24.05;4.15;;;32.90;9.10;;;;;;5100397;28;20087;-55
2021/04/04 02:16:54;;;;;;;32.97;3.97;;;32.80;9.00;;;;;;5098594;28;20163;-56
2021/04/04 02:19:24;;;;;;;28.13;4.93;;;32.70;24.20;;;;;;5095974;28;20068;-56
2021/04/04 02:21:53;;;;;;;37.20;4.95;;;32.50;28.40;;;;;;5095344;28;20046;-57
2021/04/04 02:24:21;;;;;;;29.73;5.00;;;32.60;29.20;;;;;;5076807;28;20030;-57
2021/04/04 02:26:50;;;;;;;33.75;4.70;;;32.50;24.90;;;;;;5094201;28;20068;-57
2021/04/04 02:29:17;;;;;;;26.25;4.82;;;32.20;17.40;;;;;;5098683;28;20083;-57
2021/04/04 02:31:56;;;;;;;32.08;4.88;;;32.40;9.50;;;;;;5095947;28;20068;-57
2021/04/04 02:34:35;;;;;;;26.58;4.97;;;31.80;10.90;;;;;;5096687;28;20025;-58
2021/04/04 02:37:04;;;;;;;42.25;4.80;;;32.30;10.20;;;;;;5093941;28;20425;-57
2021/04/04 02:39:38;;;;;;;23.45;3.70;;;32.30;11.60;;;;;;5090822;28;20024;-57
2021/04/04 02:42:06;;;;;;;20.58;5.35;;;32.10;10.50;;;;;;5097837;28;20151;-57
2021/04/04 02:44:35;;;;;;;19.98;3.45;;;32.00;10.70;;;;;;5083006;28;20557;-57
2021/04/04 02:47:11;;;;;;;9.88;2.83;;;31.90;10.40;;;;;;5096062;28;20100;-57
2021/04/04 02:49:38;;;;;;;13.02;2.80;;;31.30;12.20;;;;;;5095703;28;20163;-58
2021/04/04 02:52:07;;;;;;;13.32;3.17;;;31.80;11.00;;;;;;5097625;28;20113;-57
2021/04/04 02:54:37;;;;;;;12.27;3.30;;;31.70;11.30;;;;;;5092058;28;20098;-58
2021/04/04 02:57:04;;;;;;;25.45;3.88;;;;;;;;;;5094310;28;20134;-57
2021/04/04 02:59:47;;;;;;;14.27;3.72;;;31.60;11.50;;;;;;5079695;28;20099;-58
2021/04/04 03:02:18;;;;;;;16.90;3.20;;;31.60;11.90;;;;;;5094663;28;20073;-58
2021/04/04 03:04:47;;;;;;;11.18;2.80;;;31.50;12.10;;;;;;5098992;28;20069;-54
2021/04/04 03:07:19;;;;;;;14.57;3.30;;;31.40;12.40;;;;;;5099737;28;20077;-57
2021/04/04 03:09:50;;;;;;;14.48;3.67;;;31.30;12.60;;;;;;5094243;28;20193;-57
2021/04/04 03:12:18;;;;;;;20.00;3.42;;;31.10;12.50;;;;;;5094050;28;20116;-56
2021/04/04 03:14:46;;;;;;;24.58;3.85;;;30.90;28.40;;;;;;5094760;28;20104;-61
2021/04/04 03:17:14;;;;;;;16.85;4.15;;;31.00;13.00;;;;;;5092723;28;20126;-55
2021/04/04 03:19:46;;;;;;;20.02;3.97;;;30.80;24.00;;;;;;5094605;28;20032;-59
2021/04/04 03:22:13;;;;;;;25.58;4.43;;;30.50;23.60;;;;;;5097776;28;20112;-54
2021/04/04 03:24:43;;;;;;;16.13;3.85;;;30.60;15.90;;;;;;5094459;28;20028;-57
2021/04/04 03:27:11;;;;;;;14.27;4.28;;;30.50;13.10;;;;;;5090011;28;20079;-55
2021/04/04 03:29:40;;;;;;;11.77;4.18;;;30.60;13.60;;;;;;5092928;28;20072;-58
2021/04/04 03:32:07;;;;;;;21.63;3.47;;;30.40;12.80;;;;;;5097064;28;20100;-57
2021/04/04 03:34:35;;;;;;;23.02;3.33;;;30.40;12.70;;;;;;5093972;28;20132;-57
2021/04/04 03:37:03;;;;;;;19.27;3.25;;;30.40;12.50;;;;;;5094232;28;20377;-56
2021/04/04 03:39:30;;;;;;;17.77;3.95;;;30.50;23.70;;;;;;5090902;28;20071;-55
2021/04/04 03:41:59;;;;;;;18.00;3.63;;;30.30;20.10;;;;;;5094645;28;20171;-57
2021/04/04 03:44:28;;;;;;;15.43;4.10;;;30.30;12.90;;;;;;5094761;28;20069;-56
2021/04/04 03:46:56;;;;;;;21.60;3.97;;;30.30;19.40;;;;;;5078171;28;20496;-58
2021/04/04 03:49:25;;;;;;;13.32;3.30;;;30.10;12.20;;;;;;5063943;28;20063;-58
2021/04/04 03:51:56;;;;;;;22.88;3.55;;;30.00;21.90;;;;;;5095808;28;20049;-56
2021/04/04 03:54:26;;;;;;;24.10;3.83;;;30.20;12.70;;;;;;5074752;28;20091;-57
2021/04/04 03:56:54;;;;;;;17.42;3.85;;;30.00;22.90;;;;;;5095714;28;20035;-58
2021/04/04 03:59:23;;;;;;;10.10;3.00;;;30.00;12.00;;;;;;5089311;28;20091;-58
2021/04/04 04:01:51;;;;;;;13.00;4.00;;;29.80;15.80;;;;;;5094698;28;20532;-55
2021/04/04 04:04:20;;;;;;;10.43;2.88;;;29.90;12.50;;;;;;5090886;28;20096;-57
2021/04/04 04:06:47;;;;;;;14.15;3.28;;;29.80;17.30;;;;;;5089353;28;20060;-53
2021/04/04 04:09:16;;;;;;;11.85;2.97;;;29.70;12.10;;;;;;5090108;28;20119;-54
2021/04/04 04:11:45;;;;;;;9.40;3.15;;;29.00;12.10;;;;;;5089515;28;20081;-57
2021/04/04 04:14:17;;;;;;;15.82;3.08;;;29.60;11.70;;;;;;5096005;28;20065;-57
2021/04/04 04:16:44;;;;;;;7.25;2.67;;;29.60;12.00;;;;;;5097318;28;20071;-57
2021/04/04 04:19:11;;;;;;;11.85;3.03;;;29.60;12.10;;;;;;5096360;28;20080;-59
2021/04/04 04:21:41;;;;;;;16.52;3.03;;;29.50;11.80;;;;;;5094562;28;20076;-53
2021/04/04 04:24:12;;;;;;;14.75;3.50;;;29.50;11.80;;;;;;5099487;28;20082;-57
2021/04/04 04:26:43;;;;;;;17.13;3.58;;;29.40;13.20;;;;;;5085194;28;20076;-58
2021/04/04 04:29:18;;;;;;;13.70;2.90;;;29.30;11.50;;;;;;5091716;28;20182;-56
2021/04/04 04:31:47;;;;;;;17.85;3.28;;;29.60;13.50;;;;;;5095224;28;20060;-56
2021/04/04 04:34:15;;;;;;;12.80;3.65;;;29.30;13.00;;;;;;5100050;28;20089;-56
2021/04/04 04:36:42;;;;;;;18.88;3.67;;;29.50;16.80;;;;;;5091998;28;20093;-57
2021/04/04 04:39:11;;;;;;;29.23;3.85;;;29.20;11.40;;;;;;5095276;28;20146;-53
2021/04/04 04:41:44;;;;;;;12.70;3.65;;;29.10;10.80;;;;;;5094209;28;20050;-53
2021/04/04 04:44:19;;;;;;;11.05;3.60;;;28.80;12.70;;;;;;5095599;28;20050;-59
2021/04/04 04:46:47;;;;;;;10.02;3.08;;;29.10;11.00;;;;;;5098131;28;20437;-57
2021/04/04 04:49:14;;;;;;;18.08;3.38;;;29.00;10.70;;;;;;5093742;28;20077;-59
2021/04/04 04:51:41;;;;;;;9.27;3.53;;;29.10;10.40;;;;;;5074878;28;20179;-56
2021/04/04 04:54:10;;;;;;;12.40;3.28;;;28.90;44.10;;;;;;5095130;28;20087;-54
2021/04/04 04:56:41;;;;;;;10.93;3.13;;;28.90;40.80;;;;;;5078944;28;20039;-58
2021/04/04 04:59:08;;;;;;;11.57;3.20;;;29.00;9.60;;;;;;5095921;28;20080;-58
2021/04/04 05:01:40;;;;;;;14.63;3.17;;;29.00;9.90;;;;;;5099860;28;21072;-58
2021/04/04 05:04:08;;;;;;;15.30;3.28;;;28.80;16.30;;;;;;5096473;28;20061;-59
2021/04/04 05:06:36;;;;;;;10.32;2.53;;;28.90;9.60;;;;;;5106347;28;20068;-55
2021/04/04 05:09:06;;;;;;;9.77;2.70;;;28.90;8.80;;;;;;5093980;28;20093;-53
2021/04/04 05:11:39;;;;;;;12.88;2.40;;;28.80;9.20;;;;;;5092567;28;20031;-53
2021/04/04 05:14:06;;;;;;;9.25;2.83;;;;;;;;;;5096933;28;20048;-53
2021/04/04 05:16:32;;;;;;;11.38;2.55;;;28.80;8.60;;;;;;5093943;28;20020;-54
2021/04/04 05:19:00;;;;;;;8.55;2.30;;;28.70;8.60;;;;;;5096546;28;20035;-54
2021/04/04 05:21:30;;;;;;;11.85;2.78;;;28.70;9.10;;;;;;5092684;28;20080;-57
2021/04/04 05:24:03;;;;;;;9.55;2.75;;;28.60;9.10;;;;;;5104019;28;20080;-54
2021/04/04 05:26:40;;;;;;;15.05;2.88;;;28.60;9.00;;;;;;5100781;28;20129;-52
2021/04/04 05:29:11;;;;;;;10.50;2.53;;;28.40;20.80;;;;;;5092381;28;20024;-53
2021/04/04 05:32:04;;;;;;;13.13;3.35;;;28.60;18.70;;;;;;5097199;28;20136;-56
2021/04/04 05:34:39;;;;;;;6.82;2.33;;;28.50;16.40;;;;;;5092180;28;20406;-56
2021/04/04 05:37:09;;;;;;;7.68;2.13;;;28.60;17.30;;;;;;5088595;28;20078;-55
2021/04/04 05:39:38;;;;;;;17.05;2.58;;;28.20;16.00;;;;;;5078856;28;20458;-57
2021/04/04 05:42:06;;;;;;;14.70;2.60;;;28.30;18.40;;;;;;5095066;28;20075;-56
2021/04/04 05:44:38;;;;;;;10.70;1.73;;;28.30;8.90;;;;;;5089963;28;20085;-52
2021/04/04 05:47:23;;;;;;;10.77;2.03;;;28.30;19.70;;;;;;5093705;28;20082;-57
2021/04/04 05:50:07;;;;;;;19.17;2.92;;;28.20;8.50;;;;;;5095861;28;20073;-52
2021/04/04 05:52:39;;;;;;;10.57;2.17;;;28.30;8.60;;;;;;5096837;28;20089;-54
2021/04/04 05:55:33;;;;;;;9.43;2.20;;;28.30;8.70;;;;;;5098377;28;20077;-57
2021/04/04 05:58:15;;;;;;;8.43;2.75;;;28.20;8.50;;;;;;5095864;28;20073;-57
2021/04/04 06:00:46;;;;;;;9.88;2.78;;;28.20;8.00;;;;;;5095370;28;20066;-55
2021/04/04 06:03:12;;;;;;;9.10;2.63;;;28.20;8.60;;;;;;5093858;28;20066;-55
2021/04/04 06:05:57;;;;;;;4.82;2.15;;;28.20;8.50;;;;;;5093124;28;20076;-60
2021/04/04 06:08:55;;;;;;;10.30;2.25;;;28.10;11.40;;;;;;5100299;28;20404;-53
2021/04/04 06:11:47;;;;;;;9.27;3.30;;;28.20;19.90;;;;;;5094629;28;20119;-53
2021/04/04 06:14:52;;;;;;;11.75;3.83;;;28.00;8.30;;;;;;5071757;28;20198;-55
2021/04/04 06:17:42;;;;;;;9.60;3.00;;;28.00;8.30;;;;;;5093670;28;20077;-56
2021/04/04 06:20:15;;;;;;;13.07;2.33;;;27.90;8.50;;;;;;5095864;28;20083;-53
2021/04/04 06:23:08;;;;;;;6.25;2.47;;;27.80;17.50;;;;;;5095419;28;20077;-55
2021/04/04 06:26:11;;;;;;;10.98;2.90;;;27.70;19.00;;;;;;5069827;28;20117;-58
2021/04/04 06:29:07;;;;;;;13.25;2.55;;;27.70;17.50;;;;;;5096180;28;20049;-52
2021/04/04 06:31:55;;;;;;;10.77;2.78;;;27.60;21.40;;;;;;5098503;28;20023;-54
2021/04/04 06:34:37;;;;;;;14.73;2.80;;;27.60;8.70;;;;;;5094873;28;20140;-54
2021/04/04 06:37:22;;;;;;;8.93;1.90;;;27.50;8.70;;;;;;5095381;28;20072;-56
2021/04/04 06:40:05;;;;;;;8.80;2.35;;;27.40;8.90;;;;;;5096676;28;20190;-55
2021/04/04 06:43:11;;;;;;;7.60;2.50;;;27.30;9.10;;;;;;5096031;28;20080;-57
2021/04/04 06:46:12;;;;;;;11.00;2.80;;;27.20;9.30;;;;;;5095404;28;20091;-57
2021/04/04 06:48:57;;;;;;;7.65;1.90;;;27.10;9.70;;;;;;5100458;28;20434;-56
2021/04/04 06:51:57;;;;;;;3.33;1.73;;;26.90;10.00;;;;;;5093719;28;20087;-58
2021/04/04 06:54:53;;;;;;;8.30;3.78;;;26.80;10.70;;;;;;5093762;28;20530;-56
2021/04/04 06:57:27;;;;;;;9.02;3.17;;;26.50;24.10;;;;;;5096333;28;20083;-56
2021/04/04 07:00:07;;;;;;;7.90;3.20;;;26.40;11.70;;;;;;5099343;28;20186;-58
2021/04/04 07:02:56;;;;;;;5.47;1.83;;;26.30;12.10;;;;;;5099212;28;20405;-54
2021/04/04 07:05:33;;;;;;;4.50;1.55;;;26.00;12.20;;;;;;5094467;28;20087;-53
2021/04/04 07:08:29;;;;;;;7.43;2.13;;;25.90;12.40;;;;;;5096302;28;20076;-55
2021/04/04 07:11:11;;;;;;;10.50;2.88;;;25.90;12.60;;;;;;5017222;28;20142;-55
2021/04/04 07:13:56;;;;;;;8.43;2.53;;;25.80;12.50;;;;;;5090416;28;20096;-58
2021/04/04 07:16:41;;;;;;;9.00;2.25;;;25.70;12.50;;;;;;5091192;28;20519;-56
2021/04/04 07:19:35;;;;;;;5.13;1.88;;;25.60;12.40;;;;;;5098387;28;20084;-55
2021/04/04 07:22:25;;;;;;;5.00;1.77;;;25.50;12.00;;;;;;5096521;28;20064;-53
2021/04/04 07:25:21;;;;;;;7.18;2.17;;;25.50;13.40;;;;;;5092889;28;20506;-56
2021/04/04 07:28:12;;;;;;;13.20;2.38;;;25.40;11.60;;;;;;5093213;28;20155;-54
2021/04/04 07:30:39;;;;;;;4.45;1.42;;;25.50;11.60;;;;;;5091773;28;20085;-54
2021/04/04 07:33:39;;;;;;;7.40;1.55;;;25.40;11.70;;;;;;5093519;28;20100;-55
2021/04/04 07:36:11;;;;;;;4.43;1.55;;;25.40;27.00;;;;;;5092764;28;20035;-58
2021/04/04 07:38:49;;;;;;;6.93;1.60;;;25.40;12.20;;;;;;5095922;28;20079;-58
2021/04/04 07:41:42;;;;;;;3.88;1.45;;;25.30;12.40;;;;;;5096582;28;20072;-55
2021/04/04 07:44:21;;;;;;;7.72;1.20;;;25.20;12.80;;;;;;5091539;28;20076;-55
2021/04/04 07:47:05;;;;;;;8.15;1.80;;;25.10;13.00;;;;;;5097478;28;20087;-56
2021/04/04 07:49:39;;;;;;;4.45;1.90;;;25.00;13.30;;;;;;5099725;28;20075;-56
2021/04/04 07:52:29;;;;;;;5.30;1.63;;;24.90;13.70;;;;;;5096479;28;20088;-56
2021/04/04 07:55:01;;;;;;;9.77;2.20;;;24.90;14.20;;;;;;5098200;28;20084;-56
2021/04/04 07:57:35;;;;;;;5.78;1.83;;;24.70;14.70;;;;;;5096081;28;20076;-52
2021/04/04 08:00:10;;;;;;;5.28;1.60;;;24.70;15.30;;;;;;5098750;28;20065;-59
2021/04/04 08:03:18;;;;;;;10.77;2.10;;;24.70;15.80;;;;;;5097426;28;20533;-54
2021/04/04 08:05:49;;;;;;;6.10;1.90;;;24.50;16.10;;;;;;5038250;28;20081;-53
2021/04/04 08:08:22;;;;;;;10.02;2.10;;;24.40;16.70;;;;;;5033669;28;20133;-58
2021/04/04 08:11:02;;;;;;;11.98;4.97;;;24.30;17.10;;;;;;5071620;28;20096;-55
2021/04/04 08:13:36;;;;;;;10.13;3.67;;;24.30;16.90;;;;;;5099009;28;20564;-56
2021/04/04 08:16:05;;;;;;;12.82;2.63;;;24.20;17.30;;;;;;5101264;28;20081;-53
2021/04/04 08:18:32;;;;;;;7.70;2.80;;;24.20;17.80;;;;;;5096096;28;20084;-53
2021/04/04 08:21:07;;;;;;;12.38;2.85;;;24.00;28.80;;;;;;5097995;28;20422;-59
2021/04/04 08:23:45;;;;;;;8.60;2.58;;;23.90;27.90;;;;;;5093377;28;20044;-57
2021/04/04 08:26:23;;;;;;;8.07;2.15;;;24.00;17.80;;;;;;5099616;28;20072;-57
2021/04/04 08:28:57;;;;;;;14.77;2.47;;;23.90;17.60;;;;;;5099309;28;20075;-56
2021/04/04 08:31:39;;;;;;;4.53;2.10;;;23.90;28.20;;;;;;5102615;28;20079;-55
2021/04/04 08:34:25;;;;;;;10.07;2.15;;;23.80;23.80;;;;;;5103634;28;20104;-52
2021/04/04 08:36:59;;;;;;;5.18;2.03;;;23.70;25.60;;;;;;5099921;28;20377;-56
2021/04/04 08:39:33;;;;;;;11.15;2.38;;;23.90;17.90;;;;;;5100056;28;20065;-57
2021/04/04 08:42:01;;;;;;;8.80;2.10;;;;;;;;;;5102606;28;20503;-57
2021/04/04 08:44:42;;;;;;;9.02;1.92;;;23.70;30.70;;;;;;5100660;28;20047;-57
2021/04/04 08:47:29;;;;;;;10.90;2.45;;;23.80;17.40;;;;;;5094707;28;20078;-53
2021/04/04 08:49:58;;;;;;;10.48;2.58;;;23.80;17.60;;;;;;5099899;28;20072;-56
2021/04/04 08:52:38;;;;;;;7.63;2.10;;;23.80;17.70;;;;;;5097663;28;20092;-58
2021/04/04 08:55:05;;;;;;;8.25;2.30;;;23.70;21.90;;;;;;5097948;28;20406;-57
2021/04/04 08:57:45;;;;;;;9.48;2.58;;;23.70;23.60;;;;;;5095053;28;20068;-56
2021/04/04 09:00:13;;;;;;;7.57;1.83;;;23.70;17.00;;;;;;5099163;28;20076;-56
2021/04/04 09:02:51;;;;;;;8.32;2.08;;;23.70;25.30;;;;;;5098921;28;20155;-54
2021/04/04 09:05:21;;;;;;;8.68;2.88;;;23.70;45.20;;;;;;5100661;28;20118;-54
2021/04/04 09:07:48;;;;;;;8.20;2.90;;;23.70;20.10;;;;;;5098652;28;20517;-54
2021/04/04 09:10:17;;;;;;;9.70;2.35;;;23.50;15.40;;;;;;5097549;28;20072;-54
2021/04/04 09:12:45;;;;;;;10.57;2.13;;;23.40;18.40;;;;;;5098889;28;20084;-54
2021/04/04 09:15:14;;;;;;;4.45;2.13;;;23.60;22.90;;;;;;5098445;28;20403;-56
2021/04/04 09:18:10;;;;;;;6.05;2.22;;;23.50;16.00;;;;;;5100401;28;20076;-56
2021/04/04 09:20:40;;;;;;;13.18;2.33;;;23.50;15.60;;;;;;5077421;28;20091;-53
2021/04/04 09:23:08;;;;;;;9.20;2.08;;;23.30;34.00;;;;;;5098505;28;20596;-55
2021/04/04 09:25:39;;;;;;;5.13;1.70;;;23.70;37.50;;;;;;5079019;28;20084;-54
2021/04/04 09:28:08;;;;;;;5.78;1.65;;;23.30;16.00;;;;;;5097530;28;20068;-56
2021/04/04 09:30:42;;;;;;;5.00;1.70;;;23.50;35.30;;;;;;5093594;28;20126;-57
2021/04/04 09:33:13;;;;;;;6.45;1.88;;;23.40;16.40;;;;;;5099362;28;20103;-53
2021/04/04 09:35:41;;;;;;;4.13;1.75;;;23.30;20.40;;;;;;5081128;28;20072;-54
2021/04/04 09:38:14;;;;;;;13.85;1.98;;;23.20;17.00;;;;;;5080505;28;20112;-53
2021/04/04 09:40:42;;;;;;;6.18;1.65;;;23.00;18.10;;;;;;5097423;28;20077;-58
2021/04/04 09:43:16;;;;;;;2.60;1.38;;;23.20;18.10;;;;;;5098239;28;20554;-55
2021/04/04 09:45:44;;;;;;;7.95;1.77;;;23.10;20.80;;;;;;5098738;28;20099;-55
2021/04/04 09:48:22;;;;;;;5.85;1.77;;;23.40;32.20;;;;;;5096804;28;20071;-56
2021/04/04 09:51:02;;;;;;;9.20;1.80;;;23.50;26.80;;;;;;5095697;28;20099;-57
2021/04/04 09:53:49;;;;;;;7.97;2.05;;;;;;;;;;5097662;28;20532;-54
2021/04/04 09:56:27;;;;;;;9.55;1.88;;;23.00;23.90;;;;;;5092954;28;20069;-54
2021/04/04 09:58:54;;;;;;;4.68;1.48;;;;;;;;;;5097023;28;20080;-56
2021/04/04 10:01:24;;;;;;;7.13;1.95;;;23.00;16.50;;;;;;5094258;28;20453;-54
2021/04/04 10:04:04;;;;;;;7.07;1.90;;;22.90;16.90;;;;;;5101790;28;20501;-55
2021/04/04 10:06:36;;;;;;;7.50;1.60;;;22.80;23.80;;;;;;5095880;28;20076;-56
2021/04/04 10:09:07;;;;;;;2.83;1.48;;;22.90;32.80;;;;;;5097269;28;20104;-53
2021/04/04 10:11:34;;;;;;;8.52;2.00;;;22.70;25.80;;;;;;5095292;28;20119;-55
2021/04/04 10:14:13;;;;;;;4.93;1.80;;;23.00;27.60;;;;;;5078863;28;20108;-56
2021/04/04 10:16:40;;;;;;;3.90;1.92;;;22.20;52.00;;;;;;5096783;28;20064;-56
2021/04/04 10:19:20;;;;;;;5.45;2.08;;;22.60;49.90;;;;;;5101463;28;20059;-57
2021/04/04 10:22:00;;;;;;;6.15;1.80;;;22.60;48.30;;;;;;5093059;28;20071;-56
2021/04/04 10:24:30;;;;;;;4.15;2.00;;;;;;;;;;5095747;28;20079;-57
2021/04/04 10:27:15;;;;;;;7.82;2.03;;;22.70;16.20;;;;;;5096812;28;20073;-52
2021/04/04 10:29:42;;;;;;;11.32;1.90;;;22.70;20.30;;;;;;5091645;28;20091;-53
2021/04/04 10:32:09;;;;;;;10.60;2.00;;;22.90;30.60;;;;;;5092776;28;20096;-57
2021/04/04 10:34:43;;;;;;;5.45;1.70;;;22.60;16.60;;;;;;5093831;28;20076;-55
2021/04/04 10:37:10;;;;;;;3.70;1.80;;;;;;;;;;5093844;28;20085;-54
2021/04/04 10:39:38;;;;;;;9.55;1.98;;;22.60;24.30;;;;;;5096880;28;20079;-56
2021/04/04 10:42:15;;;;;;;9.65;1.92;;;22.60;23.50;;;;;;5073656;28;20118;-56
2021/04/04 10:44:42;;;;;;;5.55;1.75;;;22.60;15.40;;;;;;5098802;28;20159;-56
2021/04/04 10:47:23;;;;;;;4.47;1.60;;;22.60;15.30;;;;;;5093275;28;20122;-55
2021/04/04 10:49:50;;;;;;;6.95;2.17;;;22.60;15.40;;;;;;5097993;28;20455;-57
2021/04/04 10:52:18;;;;;;;7.78;2.15;;;22.40;48.80;;;;;;5097195;28;20124;-56
2021/04/04 10:54:46;;;;;;;8.15;1.83;;;22.60;23.40;;;;;;5095514;28;20794;-56
2021/04/04 10:57:13;;;;;;;8.45;2.40;;;22.60;16.30;;;;;;5096456;28;20073;-52
2021/04/04 10:59:40;;;;;;;11.93;1.80;;;22.60;16.50;;;;;;5097306;28;20080;-54
2021/04/04 11:02:06;;;;;;;7.80;1.95;;;22.50;15.80;;;;;;5096334;28;20081;-57
2021/04/04 11:04:33;;;;;;;9.68;2.08;;;22.50;15.80;;;;;;5094475;28;20076;-57
2021/04/04 11:07:00;;;;;;;5.50;1.73;;;22.50;16.40;;;;;;5092672;28;20558;-52
2021/04/04 11:09:27;;;;;;;6.25;1.80;;;22.40;20.70;;;;;;5093682;28;20085;-54
2021/04/04 11:12:02;;;;;;;7.88;1.60;;;;;;;;;;5095298;28;20571;-56
2021/04/04 11:14:31;;;;;;;6.60;1.73;;;22.40;24.40;;;;;;5098308;28;20079;-57
2021/04/04 11:17:02;;;;;;;7.82;1.70;;;22.40;16.00;;;;;;5095561;28;20068;-55
2021/04/04 11:19:30;;;;;;;5.18;1.40;;;22.50;42.00;;;;;;5099030;28;20070;-58
2021/04/04 11:21:59;;;;;;;9.02;2.00;;;22.30;17.40;;;;;;5098020;28;20068;-54
2021/04/04 11:24:26;;;;;;;4.07;1.80;;;22.30;25.90;;;;;;5098150;28;20065;-57
2021/04/04 11:26:58;;;;;;;6.00;1.77;;;22.20;18.10;;;;;;5099020;28;20443;-55
2021/04/04 11:29:26;;;;;;;9.63;1.92;;;22.20;16.10;;;;;;5095012;28;20076;-56
2021/04/04 11:31:58;;;;;;;4.97;2.28;;;22.20;17.20;;;;;;5097857;28;20433;-57
2021/04/04 11:34:31;;;;;;;5.80;2.00;;;22.10;22.80;;;;;;5098172;28;20083;-53
2021/04/04 11:37:13;;;;;;;6.75;2.08;;;22.00;17.80;;;;;;5092045;28;20079;-56
2021/04/04 11:39:40;;;;;;;4.80;1.80;;;21.90;23.80;;;;;;5093228;28;20526;-53
2021/04/04 11:42:18;;;;;;;6.15;1.98;;;21.80;24.20;;;;;;5094202;28;20117;-55
2021/04/04 11:44:52;;;;;;;4.22;1.58;;;22.00;25.90;;;;;;5092059;28;20160;-56
2021/04/04 11:47:19;;;;;;;3.40;1.90;;;21.90;23.80;;;;;;5091243;28;20061;-56
2021/04/04 11:49:56;;;;;;;2.97;1.50;;;21.90;28.60;;;;;;5101488;28;20071;-53
2021/04/04 11:52:22;;;;;;;6.70;1.85;;;21.40;31.30;;;;;;5091857;28;20136;-55
2021/04/04 11:54:57;;;;;;;4.75;2.10;;;21.70;17.10;;;;;;5092663;28;20546;-54
2021/04/04 11:57:32;;;;;;;7.32;1.80;;;21.70;27.90;;;;;;5093870;28;20506;-51
2021/04/04 12:00:08;;;;;;;4.35;1.55;;;21.70;30.00;;;;;;5096888;28;20067;-52
2021/04/04 12:02:37;;;;;;;7.47;1.83;;;21.60;17.80;;;;;;5097126;28;20062;-52
2021/04/04 12:05:06;;;;;;;4.43;1.73;;;;;;;;;;5076850;28;20149;-55
2021/04/04 12:07:52;;;;;;;5.78;1.95;;;21.50;28.90;;;;;;5093144;28;20460;-54
2021/04/04 12:10:22;;;;;;;6.25;1.98;;;21.40;24.10;;;;;;5092290;28;20071;-56
2021/04/04 12:12:49;;;;;;;7.78;1.65;;;21.40;19.40;;;;;;5093474;28;20118;-57
2021/04/04 12:15:18;;;;;;;5.05;2.05;;;21.30;19.60;;;;;;5093458;28;20072;-53
2021/04/04 12:17:50;;;;;;;4.55;2.03;;;21.20;19.20;;;;;;5074772;28;20112;-56
2021/04/04 12:20:19;;;;;;;9.40;2.00;;;;;;;;;;5089644;28;20073;-54
2021/04/04 12:22:46;;;;;;;3.95;1.77;;;21.00;19.80;;;;;;5094446;28;20048;-52
2021/04/04 12:25:21;;;;;;;5.05;2.13;;;21.10;19.70;;;;;;5099254;28;20049;-55
2021/04/04 12:27:50;;;;;;;7.15;2.17;;;21.10;20.10;;;;;;5096856;28;20521;-56
2021/04/04 12:30:27;;;;;;;5.85;2.10;;;21.10;19.70;;;;;;5091754;28;20525;-53
2021/04/04 12:33:13;;;;;;;4.55;1.90;;;21.20;25.00;;;;;;5094750;28;20577;-56
2021/04/04 12:35:45;;;;;;;7.15;1.83;;;20.80;19.90;;;;;;5098995;28;20154;-55
2021/04/04 12:38:25;;;;;;;4.50;2.05;;;20.80;20.70;;;;;;5095390;28;20119;-54
2021/04/04 12:40:53;;;;;;;8.63;1.90;;;20.80;20.30;;;;;;5075472;28;20073;-54
2021/04/04 12:43:20;;;;;;;7.00;1.95;;;20.80;27.30;;;;;;5097406;28;20590;-56
2021/04/04 12:45:46;;;;;;;6.00;2.17;;;20.80;20.20;;;;;;5094221;28;20072;-53
2021/04/04 12:48:21;;;;;;;6.95;2.15;;;20.80;31.10;;;;;;5094817;28;20069;-59
2021/04/04 12:51:01;;;;;;;6.38;2.33;;;20.80;21.00;;;;;;5094719;28;20083;-57
2021/04/04 12:53:28;;;;;;;4.18;1.95;;;;;;;;;;5101055;28;20150;-55
2021/04/04 12:55:56;;;;;;;42.08;4.45;;;20.80;21.00;;;;;;5096602;28;20082;-52
2021/04/04 12:58:36;;;;;;;14.75;3.60;;;20.60;37.10;;;;;;5095712;28;20091;-56
2021/04/04 13:01:06;;;;;;;18.10;3.10;;;20.50;30.60;;;;;;5096516;28;20016;-56
2021/04/04 13:03:38;;;;;;;7.68;2.47;;;20.30;24.00;;;;;;5095615;28;20039;-55
2021/04/04 13:06:05;;;;;;;10.02;2.40;;;20.20;22.00;;;;;;5095047;28;20072;-55
2021/04/04 13:08:33;;;;;;;9.13;2.40;;;20.20;22.50;;;;;;5079091;28;20554;-58
2021/04/04 13:11:05;;;;;;;5.85;2.35;;;20.20;23.00;;;;;;5095943;28;20104;-55
2021/04/04 13:13:34;;;;;;;6.50;2.40;;;20.10;22.40;;;;;;5093696;28;20066;-53
2021/04/04 13:16:03;;;;;;;6.30;2.45;;;20.10;22.90;;;;;;5097369;28;20076;-55
2021/04/04 13:18:30;;;;;;;5.60;2.35;;;;;;;;;;5099269;28;20175;-52
2021/04/04 13:21:05;;;;;;;11.38;2.65;;;19.80;22.50;;;;;;5094090;28;20083;-55